Time;durP1;ratioP1;P1;durP2;ratioP2;P2;SDS_P1;SDS_P2;PMS_P1;PMS_P2;Temp;Humidity;BMP_temperature;BMP_pressure;BME280_temperature;BME280_humidity;BME280_pressure;Samples;Min_cycle;Max_cycle;Signal;HPM_P1;HPM_P2
2022/10/22 00:00:00;;;;;;;16.33;13.25;;;;;;;;;;5073405;28;20028;-75
2022/10/22 00:02:26;;;;;;;17.77;13.38;;;;;;;;;;5073528;28;20059;-75
2022/10/22 00:04:55;;;;;;;19.05;13.05;;;;;;;;;;5073391;28;20485;-75
2022/10/22 00:07:22;;;;;;;18.85;14.70;;;;;;;;;;5073421;28;20020;-75
2022/10/22 00:09:48;;;;;;;16.15;11.98;;;;;;;;;;5073065;28;20129;-73
2022/10/22 00:12:15;;;;;;;19.77;13.40;;;;;;;;;;5073114;28;20474;-75
2022/10/22 00:14:41;;;;;;;20.20;13.18;;;;;;;;;;5072030;28;20578;-75
2022/10/22 00:17:07;;;;;;;20.40;14.05;;;;;;;;;;5073278;28;20044;-75
2022/10/22 00:19:33;;;;;;;20.15;14.82;;;;;;;;;;5073166;28;20031;-75
2022/10/22 00:21:59;;;;;;;21.90;15.30;;;;;;;;;;5073130;28;20021;-74
2022/10/22 00:24:26;;;;;;;23.00;17.33;;;;;;;;;;5072766;28;20025;-76
2022/10/22 00:26:52;;;;;;;28.08;18.60;;;;;;;;;;5073027;28;20523;-74
2022/10/22 00:29:19;;;;;;;31.30;19.23;;;;;;;;;;5072762;28;20034;-75
2022/10/22 00:31:48;;;;;;;24.77;18.20;;;;;;;;;;5072874;28;20108;-75
2022/10/22 00:34:20;;;;;;;23.75;15.88;;;;;;;;;;5072788;28;20482;-75
2022/10/22 00:36:46;;;;;;;21.65;13.68;;;;;;;;;;5072905;28;20390;-75
2022/10/22 00:39:15;;;;;;;16.38;12.25;;;;;;;;;;5072882;28;20217;-75
2022/10/22 00:41:41;;;;;;;23.65;14.35;;;;;;;;;;5072924;28;20058;-75
2022/10/22 00:44:07;;;;;;;18.40;13.68;;;;;;;;;;5072886;28;20016;-75
2022/10/22 00:46:33;;;;;;;19.20;12.48;;;;;;;;;;5073148;28;20458;-75
2022/10/22 00:49:01;;;;;;;16.20;12.23;;;;;;;;;;5073117;28;20024;-74
2022/10/22 00:51:32;;;;;;;20.67;12.57;;;;;;;;;;5072925;28;20038;-74
2022/10/22 00:54:01;;;;;;;18.23;12.93;;;;;;;;;;5072868;28;20033;-73
2022/10/22 00:56:28;;;;;;;20.15;13.45;;;;;;;;;;5072684;28;20074;-73
2022/10/22 00:58:59;;;;;;;21.35;13.73;;;;;;;;;;5072754;28;20379;-74
2022/10/22 01:01:29;;;;;;;19.67;13.55;;;;;;;;;;5072788;28;20096;-73
2022/10/22 01:03:56;;;;;;;18.30;12.63;;;;;;;;;;5073356;28;20056;-72
2022/10/22 01:06:32;;;;;;;15.57;12.35;;;;;;;;;;5073105;28;20024;-73
2022/10/22 01:08:58;;;;;;;20.65;12.60;;;;;;;;;;5072959;28;20032;-73
2022/10/22 01:11:31;;;;;;;20.17;11.80;;;;;;;;;;5072225;28;20044;-73
2022/10/22 01:13:57;;;;;;;16.25;11.98;;;;;;;;;;5072429;28;20056;-73
2022/10/22 01:16:41;;;;;;;16.08;10.88;;;;;;;;;;5072353;28;20562;-73
2022/10/22 01:19:13;;;;;;;15.45;11.27;;;;;;;;;;5072641;28;20031;-73
2022/10/22 01:21:45;;;;;;;16.38;10.23;;;;;;;;;;5054297;28;20078;-74
2022/10/22 01:24:20;;;;;;;12.43;9.57;;;;;;;;;;5072558;28;20024;-75
2022/10/22 01:27:15;;;;;;;16.10;10.02;;;;;;;;;;5072298;28;20025;-76
2022/10/22 01:29:48;;;;;;;13.93;10.25;;;;;;;;;;5010651;28;20042;-75
2022/10/22 01:32:16;;;;;;;15.27;11.98;;;;;;;;;;5010805;28;20069;-75
2022/10/22 01:34:44;;;;;;;16.08;11.50;;;;;;;;;;5010713;28;20045;-75
2022/10/22 01:37:11;;;;;;;16.55;10.65;;;;;;;;;;5011829;28;20040;-75
2022/10/22 01:39:39;;;;;;;18.52;11.55;;;;;;;;;;5000876;28;20092;-75
2022/10/22 01:42:05;;;;;;;19.98;13.00;;;;;;;;;;5014573;28;20411;-75
2022/10/22 01:44:39;;;;;;;14.93;10.73;;;;;;;;;;5014190;28;20026;-75
2022/10/22 01:47:14;;;;;;;14.23;10.65;;;;;;;;;;5014411;28;20546;-75
2022/10/22 01:49:59;;;;;;;19.52;11.15;;;;;;;;;;5014224;28;20034;-75
2022/10/22 01:52:27;;;;;;;18.33;10.57;;;;;;;;;;5014318;28;20625;-76
2022/10/22 01:55:02;;;;;;;22.20;12.77;;;;;;;;;;5014184;28;20042;-75
2022/10/22 01:57:37;;;;;;;19.30;12.90;;;;;;;;;;5014177;28;20026;-75
2022/10/22 02:00:09;;;;;;;21.58;13.05;;;;;;;;;;5014488;28;20045;-75
2022/10/22 02:02:46;;;;;;;18.55;13.70;;;;;;;;;;5014157;28;20025;-74
2022/10/22 02:05:15;;;;;;;21.25;13.40;;;;;;;;;;5020205;28;20033;-76
2022/10/22 02:07:47;;;;;;;20.55;14.07;;;;;;;;;;5068967;28;20056;-76
2022/10/22 02:10:14;;;;;;;23.95;16.05;;;;;;;;;;5075397;28;20044;-76
2022/10/22 02:12:41;;;;;;;21.88;15.25;;;;;;;;;;5075616;28;20417;-76
2022/10/22 02:15:07;;;;;;;31.10;16.65;;;;;;;;;;5075639;28;20032;-74
2022/10/22 02:17:34;;;;;;;20.70;15.27;;;;;;;;;;5075530;28;20025;-75
2022/10/22 02:20:02;;;;;;;16.67;11.82;;;;;;;;;;5075608;28;20032;-74
2022/10/22 02:22:29;;;;;;;15.82;11.07;;;;;;;;;;5075559;28;20021;-74
2022/10/22 02:24:55;;;;;;;18.20;13.20;;;;;;;;;;5075182;28;20020;-74
2022/10/22 02:27:22;;;;;;;15.40;10.02;;;;;;;;;;5075124;28;20489;-74
2022/10/22 02:29:51;;;;;;;16.20;9.80;;;;;;;;;;5075261;28;20035;-76
2022/10/22 02:32:19;;;;;;;13.13;9.10;;;;;;;;;;5075294;28;20023;-75
2022/10/22 02:34:45;;;;;;;15.40;9.63;;;;;;;;;;5075158;28;20074;-74
2022/10/22 02:37:12;;;;;;;12.93;9.52;;;;;;;;;;5075139;28;20025;-73
2022/10/22 02:39:38;;;;;;;15.77;10.32;;;;;;;;;;5074941;28;20116;-74
2022/10/22 02:42:05;;;;;;;16.83;9.50;;;;;;;;;;5075086;28;20032;-75
2022/10/22 02:44:31;;;;;;;13.98;10.05;;;;;;;;;;5074967;28;20099;-75
2022/10/22 02:46:58;;;;;;;25.88;15.48;;;;;;;;;;5075103;28;20109;-77
2022/10/22 02:49:24;;;;;;;13.02;10.18;;;;;;;;;;5075055;28;20024;-75
2022/10/22 02:51:50;;;;;;;15.73;10.35;;;;;;;;;;5075082;28;20047;-76
2022/10/22 02:54:16;;;;;;;21.08;10.90;;;;;;;;;;5074883;28;20039;-75
2022/10/22 02:56:42;;;;;;;16.15;10.15;;;;;;;;;;5074611;28;20041;-75
2022/10/22 02:59:08;;;;;;;14.13;10.00;;;;;;;;;;5074641;28;20020;-74
2022/10/22 03:01:34;;;;;;;14.57;10.05;;;;;;;;;;5055849;28;20506;-76
2022/10/22 03:04:00;;;;;;;16.13;9.60;;;;;;;;;;5074470;28;20457;-75
2022/10/22 03:06:26;;;;;;;15.10;9.80;;;;;;;;;;5074656;28;20012;-75
2022/10/22 03:08:52;;;;;;;23.52;13.45;;;;;;;;;;5074455;28;20036;-75
2022/10/22 03:11:18;;;;;;;17.70;12.13;;;;;;;;;;5074209;28;20076;-74
2022/10/22 03:13:44;;;;;;;24.02;17.65;;;;;;;;;;5074272;28;20028;-74
2022/10/22 03:16:10;;;;;;;25.83;17.52;;;;;;;;;;5074614;28;20033;-74
2022/10/22 03:18:36;;;;;;;21.08;11.88;;;;;;;;;;5074257;28;20021;-74
2022/10/22 03:21:05;;;;;;;26.38;16.75;;;;;;;;;;5074329;28;20470;-74
2022/10/22 03:23:32;;;;;;;17.90;11.82;;;;;;;;;;5074084;28;20382;-75
2022/10/22 03:25:58;;;;;;;17.55;11.75;;;;;;;;;;5074027;28;20020;-74
2022/10/22 03:28:25;;;;;;;15.00;11.57;;;;;;;;;;5073820;28;20075;-74
2022/10/22 03:30:52;;;;;;;17.10;10.60;;;;;;;;;;5054979;28;20035;-73
2022/10/22 03:33:18;;;;;;;16.17;11.77;;;;;;;;;;5073882;28;20027;-73
2022/10/22 03:35:46;;;;;;;14.20;9.90;;;;;;;;;;5073744;28;20032;-73
2022/10/22 03:38:12;;;;;;;16.23;11.23;;;;;;;;;;5074075;28;20067;-74
2022/10/22 03:40:39;;;;;;;15.07;11.13;;;;;;;;;;5073613;28;20036;-74
2022/10/22 03:43:05;;;;;;;15.40;9.60;;;;;;;;;;5073922;28;20021;-73
2022/10/22 03:45:31;;;;;;;16.45;10.15;;;;;;;;;;5073587;28;20032;-73
2022/10/22 03:47:57;;;;;;;20.65;10.63;;;;;;;;;;5073839;28;20016;-74
2022/10/22 03:50:23;;;;;;;12.95;9.73;;;;;;;;;;5073833;28;20020;-74
2022/10/22 03:52:49;;;;;;;16.45;10.25;;;;;;;;;;5073535;28;20050;-74
2022/10/22 03:55:15;;;;;;;15.25;10.82;;;;;;;;;;5073690;28;20121;-74
2022/10/22 03:57:41;;;;;;;16.05;10.18;;;;;;;;;;5073332;28;20024;-74
2022/10/22 04:00:08;;;;;;;11.70;9.45;;;;;;;;;;5072950;28;20036;-74
2022/10/22 04:02:34;;;;;;;14.45;10.65;;;;;;;;;;5073313;28;20398;-74
2022/10/22 04:05:00;;;;;;;15.15;10.48;;;;;;;;;;5073679;28;20023;-75
2022/10/22 04:07:26;;;;;;;19.48;12.05;;;;;;;;;;5073361;28;20032;-75
2022/10/22 04:09:52;;;;;;;20.33;12.88;;;;;;;;;;5072952;28;20075;-75
2022/10/22 04:12:18;;;;;;;21.88;13.93;;;;;;;;;;5073168;28;20028;-76
2022/10/22 04:14:44;;;;;;;20.55;12.80;;;;;;;;;;5073007;28;20033;-75
2022/10/22 04:17:10;;;;;;;18.00;10.80;;;;;;;;;;5073232;28;20025;-73
2022/10/22 04:19:36;;;;;;;14.82;9.93;;;;;;;;;;5073128;28;20039;-73
2022/10/22 04:22:03;;;;;;;19.40;11.00;;;;;;;;;;5066746;28;20027;-73
2022/10/22 04:24:30;;;;;;;15.65;9.98;;;;;;;;;;5069124;28;20383;-73
2022/10/22 04:26:56;;;;;;;15.50;9.05;;;;;;;;;;5072841;28;20134;-74
2022/10/22 04:29:22;;;;;;;10.68;8.52;;;;;;;;;;5073025;28;20027;-73
2022/10/22 04:31:48;;;;;;;20.67;9.38;;;;;;;;;;5070937;28;20033;-75
2022/10/22 04:34:14;;;;;;;13.05;8.75;;;;;;;;;;5072924;28;20031;-75
2022/10/22 04:36:40;;;;;;;17.65;12.48;;;;;;;;;;5072952;28;20024;-75
2022/10/22 04:39:07;;;;;;;17.33;9.93;;;;;;;;;;5072563;28;20033;-74
2022/10/22 04:41:34;;;;;;;25.80;16.63;;;;;;;;;;5072884;28;20070;-74
2022/10/22 04:44:01;;;;;;;17.15;11.10;;;;;;;;;;5072855;28;20012;-74
2022/10/22 04:46:28;;;;;;;17.67;11.90;;;;;;;;;;5072887;28;20017;-74
2022/10/22 04:48:54;;;;;;;16.38;11.27;;;;;;;;;;5072886;28;20048;-74
2022/10/22 04:51:20;;;;;;;18.98;12.00;;;;;;;;;;5072716;28;20548;-73
2022/10/22 04:53:47;;;;;;;27.27;16.02;;;;;;;;;;5072778;28;20024;-75
2022/10/22 04:56:20;;;;;;;22.10;15.20;;;;;;;;;;5054632;28;20032;-74
2022/10/22 04:58:47;;;;;;;29.40;19.60;;;;;;;;;;5072465;28;20021;-73
2022/10/22 05:01:15;;;;;;;37.47;22.02;;;;;;;;;;5072587;28;20021;-73
2022/10/22 05:03:41;;;;;;;24.13;17.30;;;;;;;;;;5072591;28;20020;-73
2022/10/22 05:06:07;;;;;;;24.75;14.95;;;;;;;;;;5072426;28;20104;-74
2022/10/22 05:08:33;;;;;;;22.30;14.57;;;;;;;;;;5072569;28;20013;-74
2022/10/22 05:10:59;;;;;;;23.83;15.32;;;;;;;;;;5072439;28;20093;-73
2022/10/22 05:13:25;;;;;;;29.77;20.98;;;;;;;;;;5076082;28;20017;-73
2022/10/22 05:15:52;;;;;;;31.63;16.40;;;;;;;;;;5076456;28;20036;-72
2022/10/22 05:18:18;;;;;;;25.83;16.85;;;;;;;;;;5076542;28;20027;-74
2022/10/22 05:20:44;;;;;;;26.58;15.82;;;;;;;;;;5076536;28;20024;-73
2022/10/22 05:23:10;;;;;;;22.40;14.30;;;;;;;;;;5076438;28;20542;-72
2022/10/22 05:25:37;;;;;;;22.23;14.18;;;;;;;;;;5076334;28;20421;-74
2022/10/22 05:28:03;;;;;;;20.67;11.90;;;;;;;;;;5076308;28;20025;-74
2022/10/22 05:30:29;;;;;;;25.83;12.98;;;;;;;;;;5076330;28;20021;-74
2022/10/22 05:32:55;;;;;;;23.25;14.07;;;;;;;;;;5076289;28;20025;-74
2022/10/22 05:35:21;;;;;;;24.52;12.23;;;;;;;;;;5076002;28;20045;-74
2022/10/22 05:37:47;;;;;;;23.65;12.57;;;;;;;;;;5076090;28;20071;-74
2022/10/22 05:40:13;;;;;;;17.52;12.48;;;;;;;;;;5046966;28;20116;-74
2022/10/22 05:42:39;;;;;;;20.92;13.57;;;;;;;;;;5073027;28;20016;-75
2022/10/22 05:45:07;;;;;;;22.92;15.85;;;;;;;;;;5075931;28;20378;-75
2022/10/22 05:47:33;;;;;;;43.22;23.35;;;;;;;;;;5075887;28;20021;-75
2022/10/22 05:49:59;;;;;;;31.95;17.45;;;;;;;;;;5076295;28;20479;-74
2022/10/22 05:52:26;;;;;;;30.63;16.80;;;;;;;;;;5076107;28;20017;-74
2022/10/22 05:54:52;;;;;;;28.30;16.95;;;;;;;;;;5075673;28;20040;-74
2022/10/22 05:57:18;;;;;;;36.85;18.40;;;;;;;;;;5057803;28;20025;-74
2022/10/22 05:59:44;;;;;;;32.05;20.20;;;;;;;;;;5075754;28;20161;-74
2022/10/22 06:02:10;;;;;;;42.90;26.73;;;;;;;;;;5075917;28;20021;-75
2022/10/22 06:04:36;;;;;;;54.65;34.15;;;;;;;;;;5075735;28;20029;-75
2022/10/22 06:07:02;;;;;;;52.40;32.50;;;;;;;;;;5075652;28;20028;-75
2022/10/22 06:09:31;;;;;;;41.45;26.52;;;;;;;;;;5075267;28;20386;-75
2022/10/22 06:11:57;;;;;;;51.25;29.17;;;;;;;;;;5062134;28;20028;-75
2022/10/22 06:14:24;;;;;;;38.03;21.17;;;;;;;;;;5075449;28;20037;-74
2022/10/22 06:16:50;;;;;;;29.45;19.27;;;;;;;;;;5075595;28;20017;-75
2022/10/22 06:19:17;;;;;;;28.42;14.07;;;;;;;;;;5075598;28;20032;-75
2022/10/22 06:21:44;;;;;;;22.27;14.20;;;;;;;;;;5075297;28;20032;-75
2022/10/22 06:24:10;;;;;;;23.05;12.52;;;;;;;;;;5075069;28;20025;-74
2022/10/22 06:26:36;;;;;;;21.40;11.43;;;;;;;;;;5075318;28;20029;-74
2022/10/22 06:29:03;;;;;;;28.95;14.38;;;;;;;;;;5075423;28;20119;-74
2022/10/22 06:31:35;;;;;;;28.05;14.50;;;;;;;;;;5075281;28;20481;-75
2022/10/22 06:34:01;;;;;;;24.65;16.58;;;;;;;;;;5075091;28;20032;-74
2022/10/22 06:36:27;;;;;;;32.90;20.83;;;;;;;;;;5075394;28;20478;-74
2022/10/22 06:38:54;;;;;;;29.27;18.90;;;;;;;;;;5057033;28;20390;-76
2022/10/22 06:41:20;;;;;;;26.05;14.98;;;;;;;;;;5075055;28;20028;-75
2022/10/22 06:43:47;;;;;;;27.88;13.45;;;;;;;;;;5075066;28;20720;-75
2022/10/22 06:46:17;;;;;;;22.05;12.23;;;;;;;;;;5074655;28;20017;-75
2022/10/22 06:48:47;;;;;;;24.48;11.68;;;;;;;;;;5056210;28;20090;-75
2022/10/22 06:51:14;;;;;;;17.40;10.93;;;;;;;;;;5075146;28;20095;-75
2022/10/22 06:53:40;;;;;;;17.42;9.35;;;;;;;;;;5075253;28;20019;-75
2022/10/22 06:56:06;;;;;;;17.98;10.35;;;;;;;;;;5074369;28;20039;-74
2022/10/22 06:58:33;;;;;;;21.27;11.30;;;;;;;;;;5074679;28;20463;-75
2022/10/22 07:01:06;;;;;;;24.83;10.93;;;;;;;;;;5074702;28;20421;-74
2022/10/22 07:03:32;;;;;;;13.60;8.77;;;;;;;;;;5074548;28;20020;-73
2022/10/22 07:05:59;;;;;;;12.45;7.80;;;;;;;;;;5074703;28;20028;-73
2022/10/22 07:08:25;;;;;;;16.55;8.70;;;;;;;;;;5074223;28;20044;-74
2022/10/22 07:10:51;;;;;;;32.28;9.07;;;;;;;;;;5074221;28;20460;-73
2022/10/22 07:13:17;;;;;;;18.27;9.68;;;;;;;;;;5074340;28;20028;-74
2022/10/22 07:15:44;;;;;;;20.92;10.05;;;;;;;;;;5074339;28;20071;-73
2022/10/22 07:18:10;;;;;;;25.25;11.38;;;;;;;;;;5074283;28;20103;-74
2022/10/22 07:20:36;;;;;;;21.55;10.77;;;;;;;;;;5074274;28;20028;-74
2022/10/22 07:23:02;;;;;;;18.48;10.05;;;;;;;;;;5074213;28;20024;-74
2022/10/22 07:25:28;;;;;;;17.20;11.73;;;;;;;;;;5073637;28;20029;-73
2022/10/22 07:27:54;;;;;;;20.20;10.65;;;;;;;;;;5074037;28;20032;-74
2022/10/22 07:30:20;;;;;;;21.17;11.05;;;;;;;;;;5071067;28;20020;-72
2022/10/22 07:32:46;;;;;;;19.63;11.95;;;;;;;;;;5073351;28;20111;-73
2022/10/22 07:35:12;;;;;;;19.42;10.90;;;;;;;;;;5069215;28;20032;-75
2022/10/22 07:37:38;;;;;;;28.27;13.02;;;;;;;;;;5073419;28;20020;-75
2022/10/22 07:40:04;;;;;;;28.05;12.15;;;;;;;;;;5073620;28;20094;-74
2022/10/22 07:42:30;;;;;;;55.25;36.03;;;;;;;;;;5073334;28;20118;-72
2022/10/22 07:44:56;;;;;;;76.25;42.78;;;;;;;;;;5070063;28;20025;-74
2022/10/22 07:47:22;;;;;;;22.33;12.95;;;;;;;;;;5050116;28;20505;-74
2022/10/22 07:49:49;;;;;;;50.05;29.73;;;;;;;;;;5071170;28;20448;-71
2022/10/22 07:52:15;;;;;;;56.00;34.13;;;;;;;;;;5072703;28;20541;-71
2022/10/22 07:54:41;;;;;;;23.13;15.13;;;;;;;;;;5072518;28;20471;-72
2022/10/22 07:57:07;;;;;;;20.58;12.88;;;;;;;;;;5072805;28;20017;-74
2022/10/22 07:59:33;;;;;;;21.13;12.20;;;;;;;;;;5072696;28;20024;-71
2022/10/22 08:01:59;;;;;;;19.45;12.02;;;;;;;;;;5067470;28;20466;-72
2022/10/22 08:04:25;;;;;;;27.58;14.30;;;;;;;;;;5060141;28;20390;-72
2022/10/22 08:06:51;;;;;;;56.33;50.97;;;;;;;;;;5070241;28;20056;-71
2022/10/22 08:09:17;;;;;;;25.42;18.48;;;;;;;;;;5065539;28;20021;-71
2022/10/22 08:11:44;;;;;;;27.65;18.80;;;;;;;;;;5054032;28;20037;-71
2022/10/22 08:14:10;;;;;;;56.55;32.47;;;;;;;;;;5072278;28;20020;-71
2022/10/22 08:16:36;;;;;;;27.38;12.93;;;;;;;;;;5072208;28;20059;-75
2022/10/22 08:19:03;;;;;;;171.52;116.50;;;;;;;;;;5072561;28;20013;-69
2022/10/22 08:21:29;;;;;;;34.17;21.17;;;;;;;;;;5072069;28;20470;-69
2022/10/22 08:23:55;;;;;;;50.85;24.60;;;;;;;;;;5072347;28;20383;-71
2022/10/22 08:26:21;;;;;;;16.15;11.45;;;;;;;;;;5072532;28;20359;-71
2022/10/22 08:28:47;;;;;;;17.63;10.18;;;;;;;;;;5072279;28;20052;-68
2022/10/22 08:31:13;;;;;;;19.50;12.18;;;;;;;;;;5072031;28;20095;-71
2022/10/22 08:33:39;;;;;;;26.08;14.30;;;;;;;;;;5063517;28;20107;-72
2022/10/22 08:36:06;;;;;;;52.55;33.50;;;;;;;;;;5070171;28;20028;-73
2022/10/22 08:38:34;;;;;;;23.65;15.68;;;;;;;;;;5066450;28;20402;-73
2022/10/22 08:41:08;;;;;;;31.52;22.77;;;;;;;;;;5065491;28;20021;-72
2022/10/22 08:43:57;;;;;;;127.25;97.28;;;;;;;;;;5070969;28;20467;-73
2022/10/22 08:46:29;;;;;;;41.40;20.42;;;;;;;;;;4990737;28;20038;-73
2022/10/22 08:48:59;;;;;;;24.55;14.45;;;;;;;;;;4991202;28;20034;-72
2022/10/22 08:51:28;;;;;;;29.67;19.08;;;;;;;;;;4991050;28;20149;-73
2022/10/22 08:53:59;;;;;;;19.55;13.25;;;;;;;;;;4991105;28;20038;-73
2022/10/22 08:56:26;;;;;;;22.33;10.18;;;;;;;;;;4990795;28;20080;-73
2022/10/22 08:58:59;;;;;;;24.95;17.77;;;;;;;;;;4989395;28;20101;-73
2022/10/22 09:01:36;;;;;;;27.77;20.80;;;;;;;;;;4984536;28;20159;-73
2022/10/22 09:04:02;;;;;;;30.20;18.92;;;;;;;;;;4991086;28;20523;-73
2022/10/22 09:06:30;;;;;;;33.38;23.48;;;;;;;;;;4989464;28;20393;-72
2022/10/22 09:08:57;;;;;;;53.25;32.10;;;;;;;;;;4992141;28;20488;-73
2022/10/22 09:11:26;;;;;;;49.55;36.80;;;;;;;;;;4986504;28;20125;-72
2022/10/22 09:13:53;;;;;;;60.75;39.97;;;;;;;;;;4993973;28;20022;-73
2022/10/22 09:16:31;;;;;;;54.15;35.95;;;;;;;;;;5001188;28;20051;-72
2022/10/22 09:19:09;;;;;;;58.63;35.92;;;;;;;;;;4990767;28;20058;-72
2022/10/22 09:21:38;;;;;;;37.55;25.00;;;;;;;;;;4991133;28;20033;-72
2022/10/22 09:24:10;;;;;;;36.13;24.25;;;;;;;;;;5041806;28;20044;-73
2022/10/22 09:26:38;;;;;;;35.55;22.10;;;;;;;;;;5072355;28;20098;-72
2022/10/22 09:29:04;;;;;;;32.30;19.17;;;;;;;;;;5072370;28;20025;-72
2022/10/22 09:31:31;;;;;;;33.50;19.38;;;;;;;;;;5072680;28;20058;-72
2022/10/22 09:33:58;;;;;;;28.83;16.70;;;;;;;;;;5068175;28;20025;-74
2022/10/22 09:36:24;;;;;;;41.05;24.70;;;;;;;;;;5070021;28;20479;-74
2022/10/22 09:38:51;;;;;;;55.25;37.33;;;;;;;;;;5072073;28;20107;-74
2022/10/22 09:41:23;;;;;;;36.47;20.00;;;;;;;;;;5072153;28;20021;-73
2022/10/22 09:43:49;;;;;;;;;;;;;;;;;;5072388;28;20086;-71
2022/10/22 09:46:16;;;;;;;26.00;15.07;;;;;;;;;;5071707;28;19908;-73
2022/10/22 09:48:46;;;;;;;32.92;20.25;;;;;;;;;;5072143;28;20040;-80
2022/10/22 09:51:15;;;;;;;53.78;36.47;;;;;;;;;;5071940;28;20478;-72
2022/10/22 09:53:43;;;;;;;51.20;32.72;;;;;;;;;;5072098;28;20103;-73
2022/10/22 09:56:16;;;;;;;42.90;27.00;;;;;;;;;;5071734;28;20059;-73
2022/10/22 09:58:48;;;;;;;16.52;9.85;;;;;;;;;;5069111;28;20063;-73
2022/10/22 10:01:27;;;;;;;21.15;11.70;;;;;;;;;;5074785;28;20031;-74
2022/10/22 10:03:53;;;;;;;24.30;12.13;;;;;;;;;;5067617;28;20016;-74
2022/10/22 10:06:20;;;;;;;30.05;19.45;;;;;;;;;;5075353;28;20025;-73
2022/10/22 10:08:47;;;;;;;28.77;15.90;;;;;;;;;;5075014;28;20155;-72
2022/10/22 10:11:16;;;;;;;15.25;9.35;;;;;;;;;;5068657;28;20040;-75
2022/10/22 10:13:45;;;;;;;28.40;16.55;;;;;;;;;;5075203;28;20029;-73
2022/10/22 10:16:14;;;;;;;22.05;12.68;;;;;;;;;;5073344;28;20044;-74
2022/10/22 10:18:51;;;;;;;18.55;11.23;;;;;;;;;;5075218;28;20386;-73
2022/10/22 10:21:20;;;;;;;17.15;11.63;;;;;;;;;;5075462;28;20024;-74
2022/10/22 10:23:49;;;;;;;18.40;11.40;;;;;;;;;;5075245;28;20039;-73
2022/10/22 10:26:15;;;;;;;17.23;10.88;;;;;;;;;;5075027;28;20486;-75
2022/10/22 10:28:45;;;;;;;15.82;9.55;;;;;;;;;;5075049;28;20086;-74
2022/10/22 10:31:17;;;;;;;19.15;12.57;;;;;;;;;;5061214;28;20086;-73
2022/10/22 10:33:43;;;;;;;19.38;8.93;;;;;;;;;;5057015;28;20493;-72
2022/10/22 10:36:09;;;;;;;19.55;8.68;;;;;;;;;;5074851;28;20124;-74
2022/10/22 10:38:40;;;;;;;22.17;14.50;;;;;;;;;;5074850;28;20021;-75
2022/10/22 10:41:24;;;;;;;14.18;8.75;;;;;;;;;;5075343;28;20020;-75
2022/10/22 10:44:05;;;;;;;21.70;14.10;;;;;;;;;;5074786;28;20020;-75
2022/10/22 10:46:31;;;;;;;20.60;14.15;;;;;;;;;;5061777;28;20050;-75
2022/10/22 10:49:07;;;;;;;20.05;12.80;;;;;;;;;;5074707;28;20522;-74
2022/10/22 10:52:06;;;;;;;18.63;11.60;;;;;;;;;;5074042;28;20017;-75
2022/10/22 10:54:55;;;;;;;21.60;15.77;;;;;;;;;;4973759;28;20556;-74
2022/10/22 10:57:30;;;;;;;9.45;6.85;;;;;;;;;;4916232;29;20049;-75
2022/10/22 10:59:56;;;;;;;21.55;9.32;;;;;;;;;;4916079;29;20040;-75
2022/10/22 11:02:41;;;;;;;13.25;9.13;;;;;;;;;;4916209;29;20111;-73
2022/10/22 11:05:16;;;;;;;24.55;11.20;;;;;;;;;;4916203;29;20581;-75
2022/10/22 11:08:02;;;;;;;15.05;7.78;;;;;;;;;;4900293;29;20044;-73
2022/10/22 11:10:35;;;;;;;23.73;15.25;;;;;;;;;;4915696;29;20056;-73
2022/10/22 11:13:07;;;;;;;12.85;8.45;;;;;;;;;;4915980;29;20079;-73
2022/10/22 11:15:35;;;;;;;18.33;12.02;;;;;;;;;;4916025;29;20051;-75
2022/10/22 11:18:20;;;;;;;14.40;11.45;;;;;;;;;;4915763;29;20043;-72
2022/10/22 11:20:52;;;;;;;18.38;10.75;;;;;;;;;;4915861;29;20492;-73
2022/10/22 11:23:23;;;;;;;17.98;9.70;;;;;;;;;;4915591;29;20557;-75
2022/10/22 11:25:49;;;;;;;;;;;;;;;;;;4916279;29;20036;-73
2022/10/22 11:28:25;;;;;;;23.42;10.48;;;;;;;;;;4915775;29;20012;-75
2022/10/22 11:30:54;;;;;;;19.27;12.68;;;;;;;;;;4977791;28;20049;-74
2022/10/22 11:33:23;;;;;;;19.05;14.02;;;;;;;;;;4997410;28;20491;-72
2022/10/22 11:35:49;;;;;;;12.27;8.95;;;;;;;;;;5073350;28;20149;-74
2022/10/22 11:38:16;;;;;;;17.17;11.82;;;;;;;;;;5073312;28;20017;-73
2022/10/22 11:41:02;;;;;;;17.48;12.15;;;;;;;;;;5071012;28;20086;-75
2022/10/22 11:43:30;;;;;;;16.85;8.20;;;;;;;;;;5070010;28;20128;-77
2022/10/22 11:45:57;;;;;;;13.20;7.85;;;;;;;;;;5073415;28;20108;-77
2022/10/22 11:48:26;;;;;;;18.30;11.13;;;;;;;;;;5071810;28;20031;-77
2022/10/22 11:51:01;;;;;;;23.55;16.20;;;;;;;;;;5073571;28;20028;-76
2022/10/22 11:53:31;;;;;;;20.88;15.82;;;;;;;;;;5073386;28;20030;-76
2022/10/22 11:56:02;;;;;;;19.60;12.43;;;;;;;;;;5067798;28;20047;-76
2022/10/22 11:58:29;;;;;;;15.32;10.23;;;;;;;;;;5065533;28;20020;-75
2022/10/22 12:00:55;;;;;;;16.98;9.52;;;;;;;;;;5072353;28;20020;-76
2022/10/22 12:03:42;;;;;;;18.23;9.80;;;;;;;;;;5053668;28;20028;-76
2022/10/22 12:06:11;;;;;;;13.10;8.55;;;;;;;;;;5073477;28;20382;-75
2022/10/22 12:08:47;;;;;;;16.55;8.80;;;;;;;;;;5055061;28;20036;-76
2022/10/22 12:11:15;;;;;;;14.23;7.95;;;;;;;;;;5072949;28;20055;-73
2022/10/22 12:13:59;;;;;;;36.63;21.73;;;;;;;;;;5072802;28;20035;-73
2022/10/22 12:16:27;;;;;;;14.02;7.25;;;;;;;;;;5073327;28;20490;-73
2022/10/22 12:18:56;;;;;;;15.55;7.30;;;;;;;;;;5073002;28;20036;-74
2022/10/22 12:21:22;;;;;;;21.17;10.23;;;;;;;;;;5072485;28;20048;-74
2022/10/22 12:23:49;;;;;;;14.93;8.27;;;;;;;;;;5072773;28;20095;-73
2022/10/22 12:26:23;;;;;;;13.00;6.90;;;;;;;;;;5072708;28;20099;-74
2022/10/22 12:28:49;;;;;;;20.85;9.27;;;;;;;;;;5072930;28;20032;-74
2022/10/22 12:31:16;;;;;;;18.27;9.80;;;;;;;;;;5072245;28;20435;-74
2022/10/22 12:33:42;;;;;;;47.47;21.75;;;;;;;;;;5072719;28;20074;-71
2022/10/22 12:36:15;;;;;;;30.17;15.45;;;;;;;;;;5073018;28;20067;-73
2022/10/22 12:38:46;;;;;;;61.53;18.52;;;;;;;;;;5071248;28;20028;-72
2022/10/22 12:41:12;;;;;;;36.97;17.10;;;;;;;;;;5066400;28;20036;-71
2022/10/22 12:43:38;;;;;;;42.47;18.13;;;;;;;;;;5070637;28;20020;-72
2022/10/22 12:46:12;;;;;;;30.30;15.85;;;;;;;;;;5072702;28;20025;-72
2022/10/22 12:48:39;;;;;;;25.75;15.85;;;;;;;;;;5070836;28;20039;-72
2022/10/22 12:51:08;;;;;;;43.58;27.15;;;;;;;;;;5065191;28;20474;-72
2022/10/22 12:53:39;;;;;;;38.38;23.42;;;;;;;;;;5071894;28;20025;-71
2022/10/22 12:56:06;;;;;;;59.50;37.20;;;;;;;;;;5054143;28;20505;-72
2022/10/22 12:58:47;;;;;;;78.47;52.33;;;;;;;;;;5071663;28;20061;-72
2022/10/22 13:01:13;;;;;;;;;;;;;;;;;;5073255;28;20351;-70
2022/10/22 13:03:45;;;;;;;120.47;80.50;;;;;;;;;;5072135;28;19912;-72
2022/10/22 13:06:21;;;;;;;120.15;87.25;;;;;;;;;;5072559;28;20040;-73
2022/10/22 13:08:59;;;;;;;107.40;76.68;;;;;;;;;;5072339;28;20021;-71
2022/10/22 13:11:34;;;;;;;131.93;106.28;;;;;;;;;;5072311;28;20186;-70
2022/10/22 13:14:04;;;;;;;120.97;95.47;;;;;;;;;;5071814;28;20028;-72
2022/10/22 13:16:31;;;;;;;181.20;153.57;;;;;;;;;;5070926;28;20032;-72
2022/10/22 13:18:58;;;;;;;232.68;206.65;;;;;;;;;;5064759;28;20036;-71
2022/10/22 13:21:39;;;;;;;189.02;168.00;;;;;;;;;;5070458;28;20031;-70
2022/10/22 13:24:22;;;;;;;153.43;135.00;;;;;;;;;;5060061;28;20559;-72
2022/10/22 13:26:49;;;;;;;146.73;118.70;;;;;;;;;;5070912;28;20070;-72
2022/10/22 13:29:20;;;;;;;111.60;92.55;;;;;;;;;;5071743;28;20059;-71
2022/10/22 13:31:46;;;;;;;;;;;;;;;;;;5072717;28;20075;-71
2022/10/22 13:34:14;;;;;;;81.40;64.32;;;;;;;;;;5075094;28;20385;-72
2022/10/22 13:36:40;;;;;;;65.90;49.45;;;;;;;;;;5076017;28;20024;-72
2022/10/22 13:39:12;;;;;;;56.50;43.60;;;;;;;;;;5075177;28;20366;-72
2022/10/22 13:41:39;;;;;;;51.88;38.92;;;;;;;;;;5073779;28;20036;-71
2022/10/22 13:44:05;;;;;;;48.05;36.78;;;;;;;;;;5075795;28;20031;-69
2022/10/22 13:46:31;;;;;;;48.53;31.70;;;;;;;;;;5075902;28;20103;-70
2022/10/22 13:48:59;;;;;;;41.17;30.98;;;;;;;;;;5069989;28;20039;-71
2022/10/22 13:51:34;;;;;;;41.35;30.17;;;;;;;;;;5057400;28;20505;-71
2022/10/22 13:54:02;;;;;;;42.55;30.88;;;;;;;;;;5075848;28;20025;-70
2022/10/22 13:56:28;;;;;;;43.20;31.73;;;;;;;;;;5075626;28;20482;-69
2022/10/22 13:58:54;;;;;;;38.78;30.38;;;;;;;;;;5075608;28;20028;-69
2022/10/22 14:01:25;;;;;;;42.47;32.53;;;;;;;;;;5075604;28;20031;-70
2022/10/22 14:03:51;;;;;;;;;;;;;;;;;;5072315;28;20032;-68
2022/10/22 14:06:18;;;;;;;47.75;32.47;;;;;;;;;;5073308;28;19950;-70
2022/10/22 14:08:46;;;;;;;42.72;31.40;;;;;;;;;;5075126;28;20466;-70
2022/10/22 14:11:12;;;;;;;37.38;26.50;;;;;;;;;;5074494;28;20052;-71
2022/10/22 14:13:38;;;;;;;36.42;24.98;;;;;;;;;;5052460;28;20075;-69
2022/10/22 14:16:06;;;;;;;37.60;25.23;;;;;;;;;;5071633;28;20054;-70
2022/10/22 14:18:32;;;;;;;32.20;24.52;;;;;;;;;;5075013;28;20020;-71
2022/10/22 14:20:59;;;;;;;46.17;33.22;;;;;;;;;;5074755;28;20028;-71
2022/10/22 14:23:30;;;;;;;31.60;25.02;;;;;;;;;;5074932;28;20021;-68
2022/10/22 14:25:56;;;;;;;88.70;71.43;;;;;;;;;;5075145;28;20024;-72
2022/10/22 14:28:22;;;;;;;37.05;27.20;;;;;;;;;;5072914;28;20048;-71